Auriga Leader — 9VHF4 — position and weather

sailwx.info

Track history (hours):
 
Tides and Currents Weather Stations Pressure Air Temp Water Temp Dewpoint Dewpoint Depression Visibility Wind Speed Wind Dir Waves Ship Positions

Auriga Leader

Last reported at 2018-Jun-17 21:30 UTC. Time now 2018-Jun-17 21:52 UTC.
Position N 40°39' W 074°04'.

Length 199 m; draft 7.7 m.

Type: Cargo ship. MMSI: 564268000.

Date/timePositionNaut miles runAvg speedWind from/ knotsBaromVisibWave heightAir tempDewpointWater temp
2018-Jun-17 21:30N 40°39' W 074°04'5 9.5
2018-Jun-17 21:00N 40°34' W 074°02'611.3
2018-Jun-17 20:27N 40°30' W 073°56'711.5
2018-Jun-17 19:51N 40°27' W 073°48'4 7.2
2018-Jun-17 19:21N 40°23' W 073°47'8 7.4
2018-Jun-17 18:17N 40°15' W 073°45'3 9.6
2018-Jun-17 17:58N 40°12' W 073°44'4 7.5
2018-Jun-17 17:28N 40°09' W 073°45'4 7.5
2018-Jun-17 17:00N 40°05' W 073°44'4 7.5
2018-Jun-17 16:28N 40°01' W 073°43'3 7.4
2018-Jun-17 16:00N 39°58' W 073°42'4 7.3
2018-Jun-17 15:30N 39°54' W 073°41'4 7.4
2018-Jun-17 15:00N 39°51' W 073°40'4 7.5
2018-Jun-17 14:30N 39°47' W 073°40'4 7.5
2018-Jun-17 14:00N 39°43' W 073°40'3 7.0
2018-Jun-17 13:30N 39°40' W 073°40'2 4.9
2018-Jun-17 13:00N 39°37' W 073°41'4 7.2
2018-Jun-17 12:30N 39°34' W 073°43'4 8.2
2018-Jun-17 12:00N 39°30' W 073°44'610.1
2018-Jun-17 11:27N 39°25' W 073°46'12 7.9
2018-Jun-17 09:54N 39°13' W 073°49'5 6.9
2018-Jun-17 09:08N 39°07' W 073°50'1 6.8
2018-Jun-17 08:58N 39°06' W 073°50'3 6.7
2018-Jun-17 08:28N 39°03' W 073°51'3 6.8
2018-Jun-17 07:58N 38°60' W 073°52'4 7.3
2018-Jun-17 07:29N 38°57' W 073°55'510.2
2018-Jun-17 07:00N 38°54' W 073°60'810.7
2018-Jun-17 06:17N 38°52' W 074°09'310.7
2018-Jun-17 05:59N 38°51' W 074°13'510.5
2018-Jun-17 05:29N 38°49' W 074°19'710.5
2018-Jun-17 04:49N 38°46' W 074°28'4 9.3
2018-Jun-17 04:26N 38°45' W 074°32'4 9.0
2018-Jun-17 03:58N 38°45' W 074°37'510.4
2018-Jun-17 03:27N 38°45' W 074°44'610.1
2018-Jun-17 02:52N 38°46' W 074°52'11 8.1
2018-Jun-17 01:31N 38°51' W 075°05'010.0
2018-Jun-17 01:29N 38°51' W 075°05'711.6
2018-Jun-17 00:51N 38°58' W 075°07'515.2
2018-Jun-17 00:29N 39°03' W 075°10'712.7
2018-Jun-16 23:56N 39°09' W 075°15'715.1
2018-Jun-16 23:30N 39°15' W 075°19'918.6
2018-Jun-16 23:00N 39°22' W 075°27'917.7
2018-Jun-16 22:30N 39°29' W 075°34'5 9.5
2018-Jun-16 22:00N 39°33' W 075°35'5 9.0
2018-Jun-16 21:30N 39°33' W 075°41'4 8.3
2018-Jun-16 21:00N 39°32' W 075°46'4 6.3
2018-Jun-16 20:22N 39°32' W 075°51'3 5.7
2018-Jun-16 19:55N 39°30' W 075°54'2111.9
2018-Jun-16 18:07N 39°16' W 076°14'213.4
2018-Jun-16 18:00N 39°14' W 076°14'611.9
2018-Jun-16 17:28N 39°09' W 076°19'613.2
2018-Jun-16 17:00N 39°11' W 076°27'611.4
2018-Jun-16 16:30N 39°14' W 076°33'1 2.5
2018-Jun-16 15:59N 39°15' W 076°32'0 0.0
2018-Jun-16 15:29N 39°15' W 076°32'0 0.0
2018-Jun-16 14:59N 39°15' W 076°32'0 0.0
2018-Jun-16 14:29N 39°15' W 076°32'0 0.0
2018-Jun-16 14:00N 39°15' W 076°32'0 0.0
2018-Jun-16 13:29N 39°15' W 076°32'0 0.0
2018-Jun-16 12:59N 39°15' W 076°32'0 0.0
2018-Jun-16 12:29N 39°15' W 076°32'0 0.0
2018-Jun-16 12:00N 39°15' W 076°32'0 0.0
2018-Jun-16 11:30N 39°15' W 076°32'0 0.0
2018-Jun-16 10:59N 39°15' W 076°32'0 0.0
2018-Jun-16 10:29N 39°15' W 076°32'0 0.0
2018-Jun-16 09:59N 39°15' W 076°32'0 0.0
2018-Jun-16 09:30N 39°15' W 076°32'0 0.0
2018-Jun-16 09:00N 39°15' W 076°32'0 0.0
2018-Jun-16 08:30N 39°15' W 076°32'0 0.0
2018-Jun-16 08:00N 39°15' W 076°32'0 0.0
2018-Jun-16 07:29N 39°15' W 076°32'0 0.0
2018-Jun-16 07:00N 39°15' W 076°32'0 0.0
2018-Jun-16 06:29N 39°15' W 076°32'0 0.0
2018-Jun-16 05:56N 39°15' W 076°32'0 0.0
2018-Jun-16 05:30N 39°15' W 076°32'0 0.0
2018-Jun-16 05:00N 39°15' W 076°32'0 0.0
2018-Jun-16 04:30N 39°15' W 076°32'0 0.0
2018-Jun-16 03:59N 39°15' W 076°32'0 0.0
2018-Jun-16 03:29N 39°15' W 076°32'0 0.0
2018-Jun-16 02:59N 39°15' W 076°32'0 0.0
2018-Jun-16 02:29N 39°15' W 076°32'0 0.0
2018-Jun-16 01:59N 39°15' W 076°32'0 0.0
2018-Jun-16 01:29N 39°15' W 076°32'0 0.0
2018-Jun-16 00:59N 39°15' W 076°32'0 0.0
2018-Jun-16 00:29N 39°15' W 076°32'0 0.0
2018-Jun-15 23:59N 39°15' W 076°32'0 0.0
2018-Jun-15 23:29N 39°15' W 076°32'0 0.0
2018-Jun-15 22:59N 39°15' W 076°32'0 0.0
2018-Jun-15 22:29N 39°15' W 076°32'0 0.0
2018-Jun-15 21:59N 39°15' W 076°32'0 0.0
2018-Jun-15 21:29N 39°15' W 076°32'0 0.0
2018-Jun-15 20:59N 39°15' W 076°32'0 0.0
2018-Jun-15 20:29N 39°15' W 076°32'0 0.0
2018-Jun-15 20:00N 39°15' W 076°32'0 0.0
2018-Jun-15 19:29N 39°15' W 076°32'0 0.0
2018-Jun-15 18:59N 39°15' W 076°32'0 0.0
2018-Jun-15 18:29N 39°15' W 076°32'0 0.0
2018-Jun-15 17:59N 39°15' W 076°32'0 0.0
2018-Jun-15 17:29N 39°15' W 076°32'0 0.0
2018-Jun-15 16:59N 39°15' W 076°32'0 0.0
2018-Jun-15 16:29N 39°15' W 076°32'0 0.0
2018-Jun-15 15:59N 39°15' W 076°32'0 0.0
2018-Jun-15 15:29N 39°15' W 076°32'0 0.0
2018-Jun-15 14:59N 39°15' W 076°32'0 0.0
2018-Jun-15 14:29N 39°15' W 076°32'0 0.0
2018-Jun-15 13:59N 39°15' W 076°32'0 0.0
2018-Jun-15 13:29N 39°15' W 076°32'0 0.0
2018-Jun-15 13:00N 39°15' W 076°32'0 0.0
2018-Jun-15 12:29N 39°15' W 076°32'0 0.0
2018-Jun-15 11:59N 39°15' W 076°32'0 0.0
2018-Jun-15 11:29N 39°15' W 076°32'0 0.0
2018-Jun-15 11:00N 39°15' W 076°32'0 0.0
2018-Jun-15 10:30N 39°15' W 076°32'0 0.0
2018-Jun-15 09:59N 39°15' W 076°32'0 0.0
2018-Jun-15 09:30N 39°15' W 076°32'0 0.0
2018-Jun-15 09:00N 39°15' W 076°32'0 0.0
2018-Jun-15 08:30N 39°15' W 076°32'0 0.0
2018-Jun-15 07:59N 39°15' W 076°32'0 0.0
2018-Jun-15 07:30N 39°15' W 076°32'0 0.0
2018-Jun-15 07:00N 39°15' W 076°32'0 0.0
2018-Jun-15 06:30N 39°15' W 076°32'0 0.0
2018-Jun-15 06:00N 39°15' W 076°32'0 0.0
2018-Jun-15 05:30N 39°15' W 076°32'0 0.0
2018-Jun-15 05:00N 39°15' W 076°32'0 0.0
2018-Jun-15 04:29N 39°15' W 076°32'0 0.0
2018-Jun-15 04:00N 39°15' W 076°32'0 0.0
2018-Jun-15 03:30N 39°15' W 076°32'0 0.0
2018-Jun-15 02:59N 39°15' W 076°32'0 0.0
2018-Jun-15 02:30N 39°15' W 076°32'0 0.0
2018-Jun-15 01:59N 39°15' W 076°32'1 1.3
2018-Jun-15 01:31N 39°15' W 076°32'2 4.4
2018-Jun-15 01:01N 39°13' W 076°31'5 9.1
2018-Jun-15 00:30N 39°11' W 076°26'611.9
2018-Jun-15 00:01N 39°05' W 076°24'713.9
2018-Jun-14 23:31N 38°58' W 076°23'816.3
2018-Jun-14 23:01N 38°50' W 076°24'3516.6
2018-Jun-14 20:53N 38°15' W 076°16'717.1
2018-Jun-14 20:30N 38°09' W 076°14'917.1
2018-Jun-14 19:58N 37°60' W 076°12'  
2018-Jun-10 18:24N 26°17' W 079°22'613.9
2018-Jun-10 18:00N 26°11' W 079°22'2713.9
2018-Jun-10 16:02N 25°44' W 079°27'014.3
2018-Jun-10 16:00N 25°44' W 079°27'714.3
2018-Jun-10 15:30N 25°37' W 079°30'54713.3
2018-Jun-08 22:17N 22°18' W 088°47'1815.5
2018-Jun-08 21:06N 22°14' W 089°07'215.8
2018-Jun-08 21:00N 22°14' W 089°08'815.7
2018-Jun-08 20:30N 22°12' W 089°17'815.7
2018-Jun-08 20:00N 22°11' W 089°25'915.7
2018-Jun-08 19:26N 22°09' W 089°34'716.0
2018-Jun-08 18:59N 22°07' W 089°42'816.0
2018-Jun-08 18:30N 22°05' W 089°50'816.0
2018-Jun-08 18:00N 22°03' W 089°58'3716.1
2018-Jun-08 15:40N 21°52' W 090°37'316.2
2018-Jun-08 15:28N 21°51' W 090°40'  
Track history (hours):
 
Tides and Currents Weather Stations Pressure Air Temp Water Temp Dewpoint Dewpoint Depression Visibility Wind Speed Wind Dir Waves Ship Positions

Auriga Leader

Last reported at 2018-Jun-17 21:30 UTC. Time now 2018-Jun-17 21:52 UTC.
Position N 40°39' W 074°04'.

Length 199 m; draft 7.7 m.

Type: Cargo ship. MMSI: 564268000.

Date/timePositionNaut miles runAvg speedWind from/ knotsBaromVisibWave heightAir tempDewpointWater temp
2018-Jun-17 21:30N 40°39' W 074°04'5 9.5
2018-Jun-17 21:00N 40°34' W 074°02'611.3
2018-Jun-17 20:27N 40°30' W 073°56'711.5
2018-Jun-17 19:51N 40°27' W 073°48'4 7.2
2018-Jun-17 19:21N 40°23' W 073°47'8 7.4
2018-Jun-17 18:17N 40°15' W 073°45'3 9.6
2018-Jun-17 17:58N 40°12' W 073°44'4 7.5
2018-Jun-17 17:28N 40°09' W 073°45'4 7.5
2018-Jun-17 17:00N 40°05' W 073°44'4 7.5
2018-Jun-17 16:28N 40°01' W 073°43'3 7.4
2018-Jun-17 16:00N 39°58' W 073°42'4 7.3
2018-Jun-17 15:30N 39°54' W 073°41'4 7.4
2018-Jun-17 15:00N 39°51' W 073°40'4 7.5
2018-Jun-17 14:30N 39°47' W 073°40'4 7.5
2018-Jun-17 14:00N 39°43' W 073°40'3 7.0
2018-Jun-17 13:30N 39°40' W 073°40'2 4.9
2018-Jun-17 13:00N 39°37' W 073°41'4 7.2
2018-Jun-17 12:30N 39°34' W 073°43'4 8.2
2018-Jun-17 12:00N 39°30' W 073°44'610.1
2018-Jun-17 11:27N 39°25' W 073°46'12 7.9
2018-Jun-17 09:54N 39°13' W 073°49'5 6.9
2018-Jun-17 09:08N 39°07' W 073°50'1 6.8
2018-Jun-17 08:58N 39°06' W 073°50'3 6.7
2018-Jun-17 08:28N 39°03' W 073°51'3 6.8
2018-Jun-17 07:58N 38°60' W 073°52'4 7.3
2018-Jun-17 07:29N 38°57' W 073°55'510.2
2018-Jun-17 07:00N 38°54' W 073°60'810.7
2018-Jun-17 06:17N 38°52' W 074°09'310.7
2018-Jun-17 05:59N 38°51' W 074°13'510.5
2018-Jun-17 05:29N 38°49' W 074°19'710.5
2018-Jun-17 04:49N 38°46' W 074°28'4 9.3
2018-Jun-17 04:26N 38°45' W 074°32'4 9.0
2018-Jun-17 03:58N 38°45' W 074°37'510.4
2018-Jun-17 03:27N 38°45' W 074°44'610.1
2018-Jun-17 02:52N 38°46' W 074°52'11 8.1
2018-Jun-17 01:31N 38°51' W 075°05'010.0
2018-Jun-17 01:29N 38°51' W 075°05'711.6
2018-Jun-17 00:51N 38°58' W 075°07'515.2
2018-Jun-17 00:29N 39°03' W 075°10'712.7
2018-Jun-16 23:56N 39°09' W 075°15'715.1
2018-Jun-16 23:30N 39°15' W 075°19'918.6
2018-Jun-16 23:00N 39°22' W 075°27'917.7
2018-Jun-16 22:30N 39°29' W 075°34'5 9.5
2018-Jun-16 22:00N 39°33' W 075°35'5 9.0
2018-Jun-16 21:30N 39°33' W 075°41'4 8.3
2018-Jun-16 21:00N 39°32' W 075°46'4 6.3
2018-Jun-16 20:22N 39°32' W 075°51'3 5.7
2018-Jun-16 19:55N 39°30' W 075°54'2111.9
2018-Jun-16 18:07N 39°16' W 076°14'213.4
2018-Jun-16 18:00N 39°14' W 076°14'611.9
2018-Jun-16 17:28N 39°09' W 076°19'613.2
2018-Jun-16 17:00N 39°11' W 076°27'611.4
2018-Jun-16 16:30N 39°14' W 076°33'1 2.5
2018-Jun-16 15:59N 39°15' W 076°32'0 0.0
2018-Jun-16 15:29N 39°15' W 076°32'0 0.0
2018-Jun-16 14:59N 39°15' W 076°32'0 0.0
2018-Jun-16 14:29N 39°15' W 076°32'0 0.0
2018-Jun-16 14:00N 39°15' W 076°32'0 0.0
2018-Jun-16 13:29N 39°15' W 076°32'0 0.0
2018-Jun-16 12:59N 39°15' W 076°32'0 0.0
2018-Jun-16 12:29N 39°15' W 076°32'0 0.0
2018-Jun-16 12:00N 39°15' W 076°32'0 0.0
2018-Jun-16 11:30N 39°15' W 076°32'0 0.0
2018-Jun-16 10:59N 39°15' W 076°32'0 0.0
2018-Jun-16 10:29N 39°15' W 076°32'0 0.0
2018-Jun-16 09:59N 39°15' W 076°32'0 0.0
2018-Jun-16 09:30N 39°15' W 076°32'0 0.0
2018-Jun-16 09:00N 39°15' W 076°32'0 0.0
2018-Jun-16 08:30N 39°15' W 076°32'0 0.0
2018-Jun-16 08:00N 39°15' W 076°32'0 0.0
2018-Jun-16 07:29N 39°15' W 076°32'0 0.0
2018-Jun-16 07:00N 39°15' W 076°32'0 0.0
2018-Jun-16 06:29N 39°15' W 076°32'0 0.0
2018-Jun-16 05:56N 39°15' W 076°32'0 0.0
2018-Jun-16 05:30N 39°15' W 076°32'0 0.0
2018-Jun-16 05:00N 39°15' W 076°32'0 0.0
2018-Jun-16 04:30N 39°15' W 076°32'0 0.0
2018-Jun-16 03:59N 39°15' W 076°32'0 0.0
2018-Jun-16 03:29N 39°15' W 076°32'0 0.0
2018-Jun-16 02:59N 39°15' W 076°32'0 0.0
2018-Jun-16 02:29N 39°15' W 076°32'0 0.0
2018-Jun-16 01:59N 39°15' W 076°32'0 0.0
2018-Jun-16 01:29N 39°15' W 076°32'0 0.0
2018-Jun-16 00:59N 39°15' W 076°32'0 0.0
2018-Jun-16 00:29N 39°15' W 076°32'0 0.0
2018-Jun-15 23:59N 39°15' W 076°32'0 0.0
2018-Jun-15 23:29N 39°15' W 076°32'0 0.0
2018-Jun-15 22:59N 39°15' W 076°32'0 0.0
2018-Jun-15 22:29N 39°15' W 076°32'0 0.0
2018-Jun-15 21:59N 39°15' W 076°32'0 0.0
2018-Jun-15 21:29N 39°15' W 076°32'0 0.0
2018-Jun-15 20:59N 39°15' W 076°32'0 0.0
2018-Jun-15 20:29N 39°15' W 076°32'0 0.0
2018-Jun-15 20:00N 39°15' W 076°32'0 0.0
2018-Jun-15 19:29N 39°15' W 076°32'0 0.0
2018-Jun-15 18:59N 39°15' W 076°32'0 0.0
2018-Jun-15 18:29N 39°15' W 076°32'0 0.0
2018-Jun-15 17:59N 39°15' W 076°32'0 0.0
2018-Jun-15 17:29N 39°15' W 076°32'0 0.0
2018-Jun-15 16:59N 39°15' W 076°32'0 0.0
2018-Jun-15 16:29N 39°15' W 076°32'0 0.0
2018-Jun-15 15:59N 39°15' W 076°32'0 0.0
2018-Jun-15 15:29N 39°15' W 076°32'0 0.0
2018-Jun-15 14:59N 39°15' W 076°32'0 0.0
2018-Jun-15 14:29N 39°15' W 076°32'0 0.0
2018-Jun-15 13:59N 39°15' W 076°32'0 0.0
2018-Jun-15 13:29N 39°15' W 076°32'0 0.0
2018-Jun-15 13:00N 39°15' W 076°32'0 0.0
2018-Jun-15 12:29N 39°15' W 076°32'0 0.0
2018-Jun-15 11:59N 39°15' W 076°32'0 0.0
2018-Jun-15 11:29N 39°15' W 076°32'0 0.0
2018-Jun-15 11:00N 39°15' W 076°32'0 0.0
2018-Jun-15 10:30N 39°15' W 076°32'0 0.0
2018-Jun-15 09:59N 39°15' W 076°32'0 0.0
2018-Jun-15 09:30N 39°15' W 076°32'0 0.0
2018-Jun-15 09:00N 39°15' W 076°32'0 0.0
2018-Jun-15 08:30N 39°15' W 076°32'0 0.0
2018-Jun-15 07:59N 39°15' W 076°32'0 0.0
2018-Jun-15 07:30N 39°15' W 076°32'0 0.0
2018-Jun-15 07:00N 39°15' W 076°32'0 0.0
2018-Jun-15 06:30N 39°15' W 076°32'0 0.0
2018-Jun-15 06:00N 39°15' W 076°32'0 0.0
2018-Jun-15 05:30N 39°15' W 076°32'0 0.0
2018-Jun-15 05:00N 39°15' W 076°32'0 0.0
2018-Jun-15 04:29N 39°15' W 076°32'0 0.0
2018-Jun-15 04:00N 39°15' W 076°32'0 0.0
2018-Jun-15 03:30N 39°15' W 076°32'0 0.0
2018-Jun-15 02:59N 39°15' W 076°32'0 0.0
2018-Jun-15 02:30N 39°15' W 076°32'0 0.0
2018-Jun-15 01:59N 39°15' W 076°32'1 1.3
2018-Jun-15 01:31N 39°15' W 076°32'2 4.4
2018-Jun-15 01:01N 39°13' W 076°31'5 9.1
2018-Jun-15 00:30N 39°11' W 076°26'611.9
2018-Jun-15 00:01N 39°05' W 076°24'713.9
2018-Jun-14 23:31N 38°58' W 076°23'816.3
2018-Jun-14 23:01N 38°50' W 076°24'3516.6
2018-Jun-14 20:53N 38°15' W 076°16'717.1
2018-Jun-14 20:30N 38°09' W 076°14'917.1
2018-Jun-14 19:58N 37°60' W 076°12'  
2018-Jun-10 18:24N 26°17' W 079°22'613.9
2018-Jun-10 18:00N 26°11' W 079°22'2713.9
2018-Jun-10 16:02N 25°44' W 079°27'014.3
2018-Jun-10 16:00N 25°44' W 079°27'714.3
2018-Jun-10 15:30N 25°37' W 079°30'54713.3
2018-Jun-08 22:17N 22°18' W 088°47'1815.5
2018-Jun-08 21:06N 22°14' W 089°07'215.8
2018-Jun-08 21:00N 22°14' W 089°08'815.7
2018-Jun-08 20:30N 22°12' W 089°17'815.7
2018-Jun-08 20:00N 22°11' W 089°25'915.7
2018-Jun-08 19:26N 22°09' W 089°34'716.0
2018-Jun-08 18:59N 22°07' W 089°42'816.0
2018-Jun-08 18:30N 22°05' W 089°50'816.0
2018-Jun-08 18:00N 22°03' W 089°58'3716.1
2018-Jun-08 15:40N 21°52' W 090°37'316.2
2018-Jun-08 15:28N 21°51' W 090°40'  

Dump ship's entire track history